Gladstone, Nebraska
Current Conditions -  °F | °C
As of 4:15 PM on Saturday 25 Oct 2014 (Local Time) from KHJH Reporting Station
Clear Clear  
Wind Chill: 79°   Ceiling: Unl
Heat Index: 79°   Visibility: 10mi
Dew Point: 43°   Wind: 10mph
Humidity: 28%   Direction: 90°E
Pressure: 30.02"   Gusts: NA
Location:  40.1696°N, 97.2152°W
Report Text: KHJH 252115Z AUTO 09009KT 10SM CLR 26/06 A3002 RMK AO2 T02610060
Loading
Personal Weather Stations






























Interactive Weather Map
Tropical Storm Tracking
New forecast layout! Learn more

10-Day Weather Forecast

Advertisements
Track Severe Weather on mobile